DLH7XA LIEE-EDDM
Flight info
| Callsign | DLH7XA |
|---|---|
| Flight time | 1h 23m |
| Altitude | 38000 |
| Route | KOVAS DCT DEXUL DCT LABOM DCT UREXE DCT ROMPO DCT OLBEK DCT IBROS DCT TAGIP DCT GUNGO DCT TISAX/N0313F180 T102 NINUR T101 BETOS BETOS1A |
| Aircraft | A20N/M-SDE2E3FGIJ1LORWXYZ/HB1 |
Departure
| Time | 2026-05-08 20:20 |
|---|---|
| Airport | Cagliari Elmas Airport (LIEE) |
Arrival
| Time | 2026-05-08 21:43 |
|---|---|
| Airport | Munich Airport (EDDM) |
| Time | Latitude | Longitude | Altitude | Speed | Heading |
|---|---|---|---|---|---|
| 2026-05-08 19:46 | 39.25270 | 9.05975 | 20 ft | 0 kts | 322° |
| 2026-05-08 20:09 | 39.25267 | 9.05978 | 20 ft | 2 kts | 322° |
| 2026-05-08 20:09 | 39.25256 | 9.05991 | 20 ft | 2 kts | 322° |
| 2026-05-08 20:10 | 39.25244 | 9.06002 | 20 ft | 2 kts | 322° |
| 2026-05-08 20:10 | 39.25233 | 9.06014 | 20 ft | 1 kts | 322° |
| 2026-05-08 20:10 | 39.25225 | 9.06023 | 20 ft | 2 kts | 300° |
| 2026-05-08 20:10 | 39.25221 | 9.06042 | 20 ft | 2 kts | 264° |
| 2026-05-08 20:11 | 39.25224 | 9.06056 | 20 ft | 0 kts | 236° |
| 2026-05-08 20:11 | 39.25224 | 9.06055 | 20 ft | 2 kts | 238° |
| 2026-05-08 20:11 | 39.25198 | 9.06011 | 20 ft | 6 kts | 232° |
| 2026-05-08 20:11 | 39.25179 | 9.05979 | 20 ft | 1 kts | 232° |
| 2026-05-08 20:12 | 39.25177 | 9.05977 | 20 ft | 0 kts | 232° |
| 2026-05-08 20:12 | 39.25177 | 9.05976 | 20 ft | 0 kts | 232° |
| 2026-05-08 20:14 | 39.25169 | 9.05963 | 20 ft | 5 kts | 232° |
| 2026-05-08 20:14 | 39.25144 | 9.05915 | 20 ft | 5 kts | 262° |
| 2026-05-08 20:14 | 39.25157 | 9.05849 | 20 ft | 9 kts | 250° |
| 2026-05-08 20:14 | 39.25138 | 9.05801 | 20 ft | 11 kts | 242° |
| 2026-05-08 20:15 | 39.25168 | 9.05679 | 20 ft | 21 kts | 319° |
| 2026-05-08 20:15 | 39.25283 | 9.05545 | 20 ft | 22 kts | 319° |
| 2026-05-08 20:15 | 39.25398 | 9.05412 | 20 ft | 21 kts | 317° |
| 2026-05-08 20:15 | 39.25509 | 9.05282 | 20 ft | 21 kts | 317° |
| 2026-05-08 20:16 | 39.25617 | 9.05154 | 20 ft | 21 kts | 318° |
| 2026-05-08 20:16 | 39.25727 | 9.05030 | 20 ft | 20 kts | 319° |
| 2026-05-08 20:16 | 39.25833 | 9.04909 | 20 ft | 20 kts | 317° |
| 2026-05-08 20:16 | 39.25937 | 9.04788 | 20 ft | 20 kts | 317° |
| 2026-05-08 20:17 | 39.26032 | 9.04679 | 20 ft | 15 kts | 319° |
| 2026-05-08 20:17 | 39.26114 | 9.04580 | 20 ft | 16 kts | 301° |
| 2026-05-08 20:17 | 39.26128 | 9.04500 | 20 ft | 5 kts | 276° |
| 2026-05-08 20:17 | 39.26131 | 9.04444 | 20 ft | 6 kts | 258° |
| 2026-05-08 20:18 | 39.26100 | 9.04394 | 20 ft | 7 kts | 214° |
| 2026-05-08 20:18 | 39.26046 | 9.04392 | 20 ft | 8 kts | 156° |
| 2026-05-08 20:18 | 39.26035 | 9.04401 | 20 ft | 0 kts | 141° |
| 2026-05-08 20:19 | 39.26032 | 9.04404 | 20 ft | 4 kts | 140° |
| 2026-05-08 20:19 | 39.25805 | 9.04669 | 20 ft | 85 kts | 138° |
| 2026-05-08 20:19 | 39.25180 | 9.05394 | 22 ft | 153 kts | 139° |
| 2026-05-08 20:19 | 39.24329 | 9.06385 | 552 ft | 167 kts | 138° |
| 2026-05-08 20:20 | 39.23472 | 9.07375 | 1304 ft | 172 kts | 137° |
| 2026-05-08 20:20 | 39.22595 | 9.08408 | 2034 ft | 178 kts | 135° |
| 2026-05-08 20:20 | 39.21672 | 9.09528 | 2612 ft | 189 kts | 135° |
| 2026-05-08 20:20 | 39.20694 | 9.10738 | 3260 ft | 198 kts | 135° |
| 2026-05-08 20:21 | 39.19633 | 9.11901 | 3826 ft | 212 kts | 144° |
| 2026-05-08 20:21 | 39.18162 | 9.12569 | 4110 ft | 242 kts | 185° |
| 2026-05-08 20:21 | 39.16551 | 9.11748 | 4559 ft | 261 kts | 220° |
| 2026-05-08 20:21 | 39.15336 | 9.10082 | 5624 ft | 255 kts | 231° |
| 2026-05-08 20:22 | 39.14268 | 9.08352 | 6857 ft | 242 kts | 243° |
| 2026-05-08 20:22 | 39.13807 | 9.06401 | 7933 ft | 230 kts | 269° |
| 2026-05-08 20:22 | 39.14073 | 9.04402 | 8773 ft | 233 kts | 292° |
| 2026-05-08 20:22 | 39.15046 | 9.02645 | 9286 ft | 253 kts | 314° |
| 2026-05-08 20:23 | 39.16404 | 9.01102 | 9906 ft | 266 kts | 315° |
| 2026-05-08 20:23 | 39.17788 | 8.99524 | 10727 ft | 270 kts | 314° |
| 2026-05-08 20:23 | 39.19189 | 8.97912 | 11535 ft | 273 kts | 314° |
| 2026-05-08 20:23 | 39.20596 | 8.96283 | 12341 ft | 276 kts | 314° |
| 2026-05-08 20:24 | 39.22044 | 8.94638 | 13121 ft | 281 kts | 318° |
| 2026-05-08 20:24 | 39.23797 | 8.93409 | 13845 ft | 295 kts | 335° |
| 2026-05-08 20:24 | 39.25854 | 8.92893 | 14439 ft | 312 kts | 349° |
| 2026-05-08 20:24 | 39.28034 | 8.92724 | 15052 ft | 321 kts | 351° |
| 2026-05-08 20:25 | 39.30310 | 8.92586 | 15724 ft | 328 kts | 351° |
| 2026-05-08 20:25 | 39.32643 | 8.92440 | 16083 ft | 343 kts | 351° |
| 2026-05-08 20:25 | 39.35067 | 8.92269 | 16374 ft | 360 kts | 351° |
| 2026-05-08 20:25 | 39.37614 | 8.92089 | 16653 ft | 376 kts | 351° |
| 2026-05-08 20:26 | 39.40308 | 8.91943 | 16911 ft | 393 kts | 355° |
| 2026-05-08 20:26 | 39.43085 | 8.92390 | 17250 ft | 413 kts | 8° |
| 2026-05-08 20:26 | 39.45828 | 8.93626 | 17791 ft | 426 kts | 20° |
| 2026-05-08 20:26 | 39.48446 | 8.95407 | 18393 ft | 431 kts | 24° |
| 2026-05-08 20:27 | 39.51067 | 8.97318 | 18936 ft | 436 kts | 25° |
| 2026-05-08 20:27 | 39.53770 | 8.99297 | 19204 ft | 447 kts | 24° |
| 2026-05-08 20:27 | 39.56519 | 9.01287 | 19422 ft | 458 kts | 24° |
| 2026-05-08 20:27 | 39.59315 | 9.03296 | 19635 ft | 468 kts | 24° |
| 2026-05-08 20:28 | 39.62212 | 9.05274 | 20033 ft | 471 kts | 21° |
| 2026-05-08 20:28 | 39.65221 | 9.06967 | 20490 ft | 471 kts | 16° |
| 2026-05-08 20:28 | 39.68283 | 9.08316 | 20924 ft | 470 kts | 11° |
| 2026-05-08 20:28 | 39.71463 | 9.09441 | 21377 ft | 472 kts | 9° |
| 2026-05-08 20:29 | 39.74667 | 9.10496 | 21805 ft | 475 kts | 8° |
| 2026-05-08 20:29 | 39.77861 | 9.11541 | 22230 ft | 478 kts | 8° |
| 2026-05-08 20:29 | 39.81073 | 9.12605 | 22643 ft | 480 kts | 8° |
| 2026-05-08 20:29 | 39.84309 | 9.13724 | 23031 ft | 485 kts | 10° |
| 2026-05-08 20:30 | 39.87554 | 9.15064 | 23398 ft | 490 kts | 13° |
| 2026-05-08 20:30 | 39.90779 | 9.16605 | 23849 ft | 492 kts | 15° |
| 2026-05-08 20:30 | 39.93959 | 9.18187 | 24376 ft | 491 kts | 15° |
| 2026-05-08 20:30 | 39.97128 | 9.19782 | 24904 ft | 489 kts | 15° |
| 2026-05-08 20:31 | 40.00309 | 9.21384 | 25409 ft | 488 kts | 15° |
| 2026-05-08 20:31 | 40.03438 | 9.22958 | 25889 ft | 488 kts | 15° |
| 2026-05-08 20:31 | 40.06638 | 9.24561 | 26353 ft | 488 kts | 15° |
| 2026-05-08 20:31 | 40.09766 | 9.26127 | 26820 ft | 487 kts | 15° |
| 2026-05-08 20:32 | 40.12958 | 9.27729 | 27237 ft | 488 kts | 14° |
| 2026-05-08 20:32 | 40.16136 | 9.29318 | 27365 ft | 495 kts | 15° |
| 2026-05-08 20:32 | 40.19396 | 9.30948 | 27498 ft | 500 kts | 15° |
| 2026-05-08 20:32 | 40.22642 | 9.32578 | 27676 ft | 504 kts | 15° |
| 2026-05-08 20:33 | 40.25914 | 9.34226 | 28008 ft | 503 kts | 15° |
| 2026-05-08 20:33 | 40.29177 | 9.35874 | 28387 ft | 502 kts | 15° |
| 2026-05-08 20:33 | 40.32422 | 9.37515 | 28719 ft | 501 kts | 15° |
| 2026-05-08 20:33 | 40.35659 | 9.39153 | 28999 ft | 502 kts | 15° |
| 2026-05-08 20:34 | 40.38887 | 9.40783 | 29321 ft | 501 kts | 15° |
| 2026-05-08 20:34 | 40.42167 | 9.42437 | 29630 ft | 500 kts | 15° |
| 2026-05-08 20:34 | 40.48636 | 9.45707 | 30231 ft | 499 kts | 15° |
| 2026-05-08 20:35 | 40.51915 | 9.47368 | 30478 ft | 499 kts | 15° |
| 2026-05-08 20:35 | 40.55174 | 9.49025 | 30742 ft | 499 kts | 15° |
| 2026-05-08 20:35 | 40.58369 | 9.50647 | 31026 ft | 498 kts | 15° |
| 2026-05-08 20:35 | 40.61611 | 9.52296 | 31288 ft | 497 kts | 15° |
| 2026-05-08 20:36 | 40.64838 | 9.53938 | 31535 ft | 497 kts | 15° |
| 2026-05-08 20:36 | 40.68087 | 9.55594 | 31794 ft | 497 kts | 15° |
| 2026-05-08 20:36 | 40.71277 | 9.57219 | 32051 ft | 496 kts | 15° |
| 2026-05-08 20:36 | 40.74542 | 9.58886 | 32329 ft | 495 kts | 15° |
| 2026-05-08 20:37 | 40.77731 | 9.60519 | 32592 ft | 495 kts | 15° |
| 2026-05-08 20:37 | 40.80938 | 9.62162 | 32844 ft | 494 kts | 15° |
| 2026-05-08 20:37 | 40.84126 | 9.63797 | 33095 ft | 494 kts | 15° |
| 2026-05-08 20:37 | 40.87358 | 9.65452 | 33316 ft | 494 kts | 16° |
| 2026-05-08 20:38 | 40.90528 | 9.67081 | 33514 ft | 494 kts | 17° |
| 2026-05-08 20:38 | 40.93739 | 9.68734 | 33701 ft | 494 kts | 16° |
| 2026-05-08 20:38 | 40.96585 | 9.70201 | 33909 ft | 494 kts | 17° |
| 2026-05-08 20:38 | 40.99783 | 9.71850 | 34137 ft | 493 kts | 17° |
| 2026-05-08 20:39 | 41.02958 | 9.73494 | 34354 ft | 492 kts | 17° |
| 2026-05-08 20:39 | 41.06164 | 9.75157 | 34529 ft | 491 kts | 17° |
| 2026-05-08 20:39 | 41.09330 | 9.76799 | 34692 ft | 491 kts | 17° |
| 2026-05-08 20:39 | 41.12540 | 9.78463 | 34854 ft | 490 kts | 17° |
| 2026-05-08 20:40 | 41.15676 | 9.80089 | 35015 ft | 490 kts | 17° |
| 2026-05-08 20:40 | 41.18879 | 9.81751 | 35144 ft | 491 kts | 17° |
| 2026-05-08 20:40 | 41.22032 | 9.83389 | 35307 ft | 490 kts | 17° |
| 2026-05-08 20:40 | 41.25232 | 9.84982 | 35472 ft | 487 kts | 14° |
| 2026-05-08 20:41 | 41.28462 | 9.86338 | 35622 ft | 484 kts | 11° |
| 2026-05-08 20:41 | 41.31665 | 9.87525 | 35768 ft | 483 kts | 10° |
| 2026-05-08 20:41 | 41.34906 | 9.88683 | 35910 ft | 483 kts | 9° |
| 2026-05-08 20:41 | 41.38182 | 9.89846 | 36048 ft | 483 kts | 10° |
| 2026-05-08 20:42 | 41.41402 | 9.90994 | 36213 ft | 482 kts | 9° |
| 2026-05-08 20:42 | 41.44669 | 9.92168 | 36384 ft | 482 kts | 10° |
| 2026-05-08 20:42 | 41.47889 | 9.93328 | 36568 ft | 481 kts | 10° |
| 2026-05-08 20:42 | 41.51112 | 9.94494 | 36745 ft | 481 kts | 9° |
| 2026-05-08 20:43 | 41.54359 | 9.95670 | 36919 ft | 480 kts | 10° |
| 2026-05-08 20:43 | 41.57579 | 9.96837 | 37056 ft | 480 kts | 10° |
| 2026-05-08 20:43 | 41.60813 | 9.98012 | 37202 ft | 481 kts | 10° |
| 2026-05-08 20:43 | 41.64033 | 9.99183 | 37343 ft | 480 kts | 10° |
| 2026-05-08 20:44 | 41.67224 | 10.00344 | 37479 ft | 481 kts | 10° |
| 2026-05-08 20:44 | 41.70481 | 10.01532 | 37604 ft | 480 kts | 10° |
| 2026-05-08 20:44 | 41.73682 | 10.02699 | 37733 ft | 480 kts | 10° |
| 2026-05-08 20:44 | 41.76920 | 10.03837 | 37854 ft | 478 kts | 8° |
| 2026-05-08 20:45 | 41.80128 | 10.04741 | 37964 ft | 475 kts | 5° |
| 2026-05-08 20:45 | 41.86676 | 10.05916 | 38023 ft | 472 kts | 0° |
| 2026-05-08 20:46 | 41.93169 | 10.06833 | 38019 ft | 472 kts | 0° |
| 2026-05-08 20:46 | 41.99710 | 10.07764 | 38020 ft | 472 kts | 1° |
| 2026-05-08 20:47 | 42.06244 | 10.08710 | 38016 ft | 472 kts | 1° |
| 2026-05-08 20:47 | 42.12785 | 10.09665 | 38014 ft | 471 kts | 1° |
| 2026-05-08 20:48 | 42.19295 | 10.10617 | 38016 ft | 471 kts | 1° |
| 2026-05-08 20:48 | 42.25777 | 10.11567 | 38014 ft | 470 kts | 1° |
| 2026-05-08 20:49 | 42.32256 | 10.12520 | 38013 ft | 470 kts | 1° |
| 2026-05-08 20:49 | 42.38755 | 10.13478 | 38013 ft | 469 kts | 1° |
| 2026-05-08 20:50 | 42.45254 | 10.14436 | 38013 ft | 469 kts | 1° |
| 2026-05-08 20:50 | 42.51712 | 10.15393 | 38016 ft | 468 kts | 1° |
| 2026-05-08 20:51 | 42.58154 | 10.16348 | 38012 ft | 469 kts | 1° |
| 2026-05-08 20:51 | 42.64663 | 10.17315 | 38017 ft | 468 kts | 1° |
| 2026-05-08 20:52 | 42.71113 | 10.18275 | 38015 ft | 467 kts | 1° |
| 2026-05-08 20:52 | 42.77545 | 10.19233 | 38014 ft | 467 kts | 1° |
| 2026-05-08 20:53 | 42.84013 | 10.20199 | 38018 ft | 467 kts | 1° |
| 2026-05-08 20:53 | 42.90447 | 10.21163 | 38018 ft | 466 kts | 1° |
| 2026-05-08 20:54 | 42.96887 | 10.22129 | 38016 ft | 466 kts | 1° |
| 2026-05-08 20:54 | 43.03335 | 10.23098 | 38018 ft | 466 kts | 1° |
| 2026-05-08 20:55 | 43.09746 | 10.24065 | 38019 ft | 466 kts | 1° |
| 2026-05-08 20:55 | 43.16188 | 10.25038 | 38025 ft | 465 kts | 1° |
| 2026-05-08 20:56 | 43.22591 | 10.26008 | 38021 ft | 466 kts | 1° |
| 2026-05-08 20:56 | 43.29054 | 10.26989 | 38027 ft | 465 kts | 1° |
| 2026-05-08 20:57 | 43.35464 | 10.27963 | 38028 ft | 465 kts | 1° |
| 2026-05-08 20:57 | 43.41918 | 10.28946 | 38028 ft | 465 kts | 1° |
| 2026-05-08 20:58 | 43.48332 | 10.29926 | 38025 ft | 465 kts | 1° |
| 2026-05-08 20:58 | 43.54714 | 10.30902 | 38035 ft | 465 kts | 1° |
| 2026-05-08 20:59 | 43.61171 | 10.31892 | 38029 ft | 465 kts | 1° |
| 2026-05-08 20:59 | 43.67572 | 10.32873 | 38034 ft | 465 kts | 1° |
| 2026-05-08 21:00 | 43.74021 | 10.33868 | 38035 ft | 465 kts | 1° |
| 2026-05-08 21:00 | 43.80454 | 10.34860 | 38040 ft | 465 kts | 1° |
| 2026-05-08 21:01 | 43.86884 | 10.35853 | 38040 ft | 465 kts | 1° |
| 2026-05-08 21:01 | 43.93271 | 10.36844 | 38043 ft | 465 kts | 1° |
| 2026-05-08 21:02 | 43.99690 | 10.37841 | 38040 ft | 465 kts | 1° |
| 2026-05-08 21:02 | 44.06116 | 10.38842 | 38036 ft | 465 kts | 1° |
| 2026-05-08 21:03 | 44.12557 | 10.39848 | 38041 ft | 465 kts | 1° |
| 2026-05-08 21:03 | 44.18974 | 10.40851 | 38050 ft | 464 kts | 1° |
| 2026-05-08 21:04 | 44.25353 | 10.41850 | 38063 ft | 465 kts | 1° |
| 2026-05-08 21:04 | 44.31781 | 10.42861 | 38056 ft | 464 kts | 1° |
| 2026-05-08 21:05 | 44.38178 | 10.43867 | 38062 ft | 464 kts | 1° |
| 2026-05-08 21:05 | 44.44594 | 10.44878 | 38053 ft | 464 kts | 1° |
| 2026-05-08 21:06 | 44.51038 | 10.45898 | 38046 ft | 464 kts | 1° |
| 2026-05-08 21:06 | 44.57431 | 10.46910 | 38042 ft | 464 kts | 1° |
| 2026-05-08 21:07 | 44.63850 | 10.47931 | 38043 ft | 465 kts | 1° |
| 2026-05-08 21:07 | 44.70245 | 10.48949 | 38037 ft | 464 kts | 1° |
| 2026-05-08 21:08 | 44.76629 | 10.49966 | 38034 ft | 464 kts | 1° |
| 2026-05-08 21:08 | 44.83050 | 10.50993 | 38026 ft | 464 kts | 1° |
| 2026-05-08 21:09 | 44.89484 | 10.52024 | 38028 ft | 463 kts | 1° |
| 2026-05-08 21:09 | 44.95893 | 10.53054 | 38029 ft | 464 kts | 1° |
| 2026-05-08 21:10 | 45.02238 | 10.54074 | 38029 ft | 463 kts | 1° |
| 2026-05-08 21:10 | 45.08626 | 10.55105 | 38030 ft | 463 kts | 1° |
| 2026-05-08 21:11 | 45.14990 | 10.56482 | 38036 ft | 466 kts | 4° |
| 2026-05-08 21:11 | 45.21392 | 10.58076 | 38032 ft | 465 kts | 4° |
| 2026-05-08 21:12 | 45.27768 | 10.59636 | 38034 ft | 466 kts | 4° |
| 2026-05-08 21:12 | 45.34139 | 10.61177 | 38038 ft | 465 kts | 4° |
| 2026-05-08 21:13 | 45.40494 | 10.62710 | 38035 ft | 466 kts | 4° |
| 2026-05-08 21:13 | 45.46868 | 10.64246 | 38034 ft | 466 kts | 4° |
| 2026-05-08 21:14 | 45.53235 | 10.65784 | 38046 ft | 466 kts | 5° |
| 2026-05-08 21:14 | 45.59642 | 10.67337 | 38049 ft | 466 kts | 5° |
| 2026-05-08 21:15 | 45.66031 | 10.68888 | 38056 ft | 466 kts | 5° |
| 2026-05-08 21:15 | 45.72396 | 10.70436 | 38046 ft | 466 kts | 5° |
| 2026-05-08 21:16 | 45.78798 | 10.71998 | 38061 ft | 466 kts | 5° |
| 2026-05-08 21:16 | 45.85130 | 10.73546 | 38068 ft | 466 kts | 5° |
| 2026-05-08 21:17 | 45.91511 | 10.75109 | 38071 ft | 466 kts | 5° |
| 2026-05-08 21:17 | 45.97902 | 10.76680 | 38088 ft | 466 kts | 5° |
| 2026-05-08 21:18 | 46.04274 | 10.78249 | 38091 ft | 466 kts | 5° |
| 2026-05-08 21:18 | 46.10621 | 10.79814 | 38083 ft | 467 kts | 5° |
| 2026-05-08 21:19 | 46.17004 | 10.81392 | 38091 ft | 467 kts | 5° |
| 2026-05-08 21:19 | 46.23414 | 10.82980 | 38096 ft | 468 kts | 5° |
| 2026-05-08 21:20 | 46.29810 | 10.84571 | 38102 ft | 468 kts | 5° |
| 2026-05-08 21:20 | 46.36144 | 10.86149 | 38100 ft | 460 kts | 5° |
| 2026-05-08 21:21 | 46.42348 | 10.87701 | 38120 ft | 461 kts | 5° |
| 2026-05-08 21:21 | 46.48681 | 10.89282 | 38118 ft | 467 kts | 5° |
| 2026-05-08 21:22 | 46.55069 | 10.90885 | 38110 ft | 469 kts | 5° |
| 2026-05-08 21:22 | 46.61484 | 10.92499 | 38115 ft | 470 kts | 6° |
| 2026-05-08 21:23 | 46.67929 | 10.94125 | 38111 ft | 470 kts | 5° |
| 2026-05-08 21:23 | 46.74359 | 10.95750 | 38124 ft | 471 kts | 6° |
| 2026-05-08 21:24 | 46.80762 | 10.97374 | 38126 ft | 471 kts | 6° |
| 2026-05-08 21:24 | 46.87207 | 10.99014 | 38144 ft | 471 kts | 6° |
| 2026-05-08 21:25 | 46.93612 | 11.00625 | 38139 ft | 471 kts | 5° |
| 2026-05-08 21:25 | 47.00086 | 11.01753 | 38157 ft | 470 kts | 2° |
| 2026-05-08 21:26 | 47.06591 | 11.02697 | 38101 ft | 471 kts | 1° |
| 2026-05-08 21:26 | 47.09813 | 11.03165 | 37859 ft | 470 kts | 2° |
| 2026-05-08 21:26 | 47.13081 | 11.03641 | 37538 ft | 471 kts | 1° |
| 2026-05-08 21:26 | 47.16334 | 11.04118 | 37116 ft | 470 kts | 1° |
| 2026-05-08 21:27 | 47.19558 | 11.04593 | 36704 ft | 468 kts | 1° |
| 2026-05-08 21:27 | 47.22814 | 11.05071 | 36278 ft | 466 kts | 1° |
| 2026-05-08 21:27 | 47.26014 | 11.05543 | 35749 ft | 463 kts | 1° |
| 2026-05-08 21:27 | 47.29211 | 11.06013 | 35191 ft | 464 kts | 1° |
| 2026-05-08 21:28 | 47.32388 | 11.06481 | 34637 ft | 463 kts | 1° |
| 2026-05-08 21:28 | 47.35519 | 11.06945 | 33685 ft | 458 kts | 1° |
| 2026-05-08 21:28 | 47.38637 | 11.07401 | 32276 ft | 464 kts | 1° |
| 2026-05-08 21:28 | 47.41834 | 11.07861 | 30882 ft | 475 kts | 2° |
| 2026-05-08 21:29 | 47.45128 | 11.08340 | 29694 ft | 479 kts | 2° |
| 2026-05-08 21:29 | 47.48414 | 11.08825 | 28639 ft | 479 kts | 2° |
| 2026-05-08 21:29 | 47.51736 | 11.09319 | 27435 ft | 473 kts | 3° |
| 2026-05-08 21:29 | 47.54956 | 11.09800 | 25539 ft | 476 kts | 3° |
| 2026-05-08 21:30 | 47.58205 | 11.10279 | 23360 ft | 490 kts | 4° |
| 2026-05-08 21:30 | 47.61576 | 11.10779 | 22089 ft | 485 kts | 4° |
| 2026-05-08 21:30 | 47.65872 | 11.11430 | 21237 ft | 446 kts | 4° |
| 2026-05-08 21:30 | 47.67887 | 11.11735 | 20227 ft | 442 kts | 4° |
| 2026-05-08 21:31 | 47.70913 | 11.12189 | 19007 ft | 441 kts | 4° |
| 2026-05-08 21:31 | 47.73920 | 11.12640 | 18007 ft | 440 kts | 4° |
| 2026-05-08 21:31 | 47.76948 | 11.13094 | 17004 ft | 440 kts | 4° |
| 2026-05-08 21:31 | 47.79967 | 11.13546 | 16064 ft | 438 kts | 4° |
| 2026-05-08 21:32 | 47.82948 | 11.13994 | 15305 ft | 433 kts | 5° |
| 2026-05-08 21:32 | 47.85945 | 11.14445 | 14496 ft | 429 kts | 5° |
| 2026-05-08 21:32 | 47.88848 | 11.14882 | 13706 ft | 425 kts | 5° |
| 2026-05-08 21:32 | 47.91725 | 11.15439 | 13068 ft | 403 kts | 12° |
| 2026-05-08 21:33 | 47.94269 | 11.16732 | 12358 ft | 383 kts | 22° |
| 2026-05-08 21:33 | 47.96633 | 11.18286 | 11624 ft | 364 kts | 24° |
| 2026-05-08 21:33 | 47.98832 | 11.19797 | 10887 ft | 348 kts | 24° |
| 2026-05-08 21:33 | 48.00953 | 11.21270 | 10167 ft | 333 kts | 24° |
| 2026-05-08 21:34 | 48.02968 | 11.22674 | 9654 ft | 314 kts | 24° |
| 2026-05-08 21:34 | 48.04903 | 11.24023 | 9222 ft | 296 kts | 24° |
| 2026-05-08 21:34 | 48.06703 | 11.25272 | 8898 ft | 286 kts | 24° |
| 2026-05-08 21:34 | 48.08438 | 11.26552 | 8541 ft | 282 kts | 30° |
| 2026-05-08 21:35 | 48.10056 | 11.28082 | 8155 ft | 280 kts | 32° |
| 2026-05-08 21:35 | 48.11723 | 11.29627 | 7775 ft | 278 kts | 34° |
| 2026-05-08 21:35 | 48.13039 | 11.31338 | 7431 ft | 275 kts | 47° |
| 2026-05-08 21:35 | 48.14318 | 11.33540 | 7060 ft | 273 kts | 50° |
| 2026-05-08 21:36 | 48.15531 | 11.35702 | 6698 ft | 271 kts | 50° |
| 2026-05-08 21:36 | 48.16737 | 11.37804 | 6365 ft | 269 kts | 49° |
| 2026-05-08 21:36 | 48.17957 | 11.39885 | 6013 ft | 267 kts | 49° |
| 2026-05-08 21:36 | 48.19178 | 11.41939 | 5668 ft | 265 kts | 49° |
| 2026-05-08 21:37 | 48.20398 | 11.43972 | 5320 ft | 262 kts | 48° |
| 2026-05-08 21:37 | 48.21601 | 11.45968 | 5030 ft | 258 kts | 48° |
| 2026-05-08 21:37 | 48.22768 | 11.47897 | 4777 ft | 252 kts | 48° |
| 2026-05-08 21:37 | 48.23911 | 11.49787 | 4529 ft | 247 kts | 48° |
| 2026-05-08 21:38 | 48.25042 | 11.51656 | 4285 ft | 242 kts | 48° |
| 2026-05-08 21:38 | 48.26154 | 11.53495 | 4034 ft | 237 kts | 48° |
| 2026-05-08 21:38 | 48.27251 | 11.55311 | 3782 ft | 232 kts | 48° |
| 2026-05-08 21:38 | 48.28312 | 11.57068 | 3526 ft | 223 kts | 48° |
| 2026-05-08 21:39 | 48.29327 | 11.58750 | 3267 ft | 211 kts | 48° |
| 2026-05-08 21:39 | 48.30278 | 11.60326 | 3016 ft | 199 kts | 47° |
| 2026-05-08 21:39 | 48.31176 | 11.61815 | 2810 ft | 186 kts | 47° |
| 2026-05-08 21:39 | 48.32034 | 11.63240 | 2563 ft | 184 kts | 47° |
| 2026-05-08 21:40 | 48.32863 | 11.64615 | 2462 ft | 166 kts | 48° |
| 2026-05-08 21:40 | 48.33376 | 11.65867 | 2450 ft | 144 kts | 73° |
| 2026-05-08 21:40 | 48.33522 | 11.67321 | 2447 ft | 134 kts | 83° |
| 2026-05-08 21:41 | 48.33598 | 11.69414 | 2177 ft | 132 kts | 80° |
| 2026-05-08 21:41 | 48.33665 | 11.70098 | 2111 ft | 132 kts | 80° |
| 2026-05-08 21:41 | 48.33787 | 11.71457 | 1962 ft | 132 kts | 81° |
| 2026-05-08 21:41 | 48.33882 | 11.72807 | 1801 ft | 131 kts | 82° |
| 2026-05-08 21:42 | 48.33992 | 11.74153 | 1622 ft | 131 kts | 82° |
| 2026-05-08 21:42 | 48.34097 | 11.75502 | 1489 ft | 129 kts | 82° |
| 2026-05-08 21:42 | 48.34188 | 11.76672 | 1482 ft | 99 kts | 83° |
| 2026-05-08 21:42 | 48.34251 | 11.77521 | 1474 ft | 74 kts | 84° |
| 2026-05-08 21:43 | 48.34307 | 11.78222 | 1477 ft | 60 kts | 84° |
| 2026-05-08 21:43 | 48.34348 | 11.78787 | 1476 ft | 49 kts | 86° |
| 2026-05-08 21:43 | 48.34454 | 11.79197 | 1473 ft | 33 kts | 54° |
| 2026-05-08 21:43 | 48.34583 | 11.79465 | 1470 ft | 27 kts | 53° |
| 2026-05-08 21:44 | 48.34695 | 11.79554 | 1468 ft | 19 kts | 4° |
| 2026-05-08 21:44 | 48.34819 | 11.79557 | 1466 ft | 17 kts | 4° |
| 2026-05-08 21:44 | 48.34934 | 11.79547 | 1466 ft | 15 kts | 358° |
| 2026-05-08 21:44 | 48.35046 | 11.79591 | 1466 ft | 19 kts | 355° |
| 2026-05-08 21:45 | 48.35165 | 11.79572 | 1465 ft | 20 kts | 353° |
| 2026-05-08 21:45 | 48.35303 | 11.79547 | 1463 ft | 20 kts | 353° |
| 2026-05-08 21:45 | 48.35397 | 11.79531 | 1464 ft | 8 kts | 353° |
| 2026-05-08 21:45 | 48.35410 | 11.79459 | 1465 ft | 10 kts | 265° |
| 2026-05-08 21:46 | 48.35411 | 11.79357 | 1466 ft | 10 kts | 269° |
| 2026-05-08 21:46 | 48.35411 | 11.79310 | 1467 ft | 2 kts | 270° |
| 2026-05-08 21:46 | 48.35411 | 11.79297 | 1467 ft | 0 kts | 270° |